sensor_id;sensor_type;location;lat;lon;timestamp;pressure;altitude;pressure_sealevel;temperature;humidity
42001;BME280;27689;48.390;10.856;2023-07-31T00:02:17;96278.47;;;14.73;99.70
42001;BME280;27689;48.390;10.856;2023-07-31T00:05:01;96273.88;;;14.67;99.37
42001;BME280;27689;48.390;10.856;2023-07-31T00:07:45;96275.19;;;14.71;100.00
42001;BME280;27689;48.390;10.856;2023-07-31T00:10:29;96278.19;;;14.68;99.26
42001;BME280;27689;48.390;10.856;2023-07-31T00:13:13;96276.69;;;14.65;100.00
42001;BME280;27689;48.390;10.856;2023-07-31T00:15:57;96275.03;;;14.56;100.00
42001;BME280;27689;48.390;10.856;2023-07-31T00:18:40;96267.13;;;14.56;100.00
42001;BME280;27689;48.390;10.856;2023-07-31T00:21:25;96277.69;;;14.56;100.00
42001;BME280;27689;48.390;10.856;2023-07-31T00:24:08;96269.78;;;14.48;100.00
42001;BME280;27689;48.390;10.856;2023-07-31T00:26:52;96272.56;;;14.55;100.00
42001;BME280;27689;48.390;10.856;2023-07-31T00:29:36;96269.59;;;14.58;100.00
42001;BME280;27689;48.390;10.856;2023-07-31T00:32:20;96273.09;;;14.50;100.00
42001;BME280;27689;48.390;10.856;2023-07-31T00:35:04;96275.56;;;14.52;100.00
42001;BME280;27689;48.390;10.856;2023-07-31T00:37:48;96267.50;;;14.53;100.00
42001;BME280;27689;48.390;10.856;2023-07-31T00:40:35;96258.75;;;14.44;100.00
42001;BME280;27689;48.390;10.856;2023-07-31T00:43:20;96256.78;;;14.46;100.00
42001;BME280;27689;48.390;10.856;2023-07-31T00:46:04;96257.44;;;14.49;100.00
42001;BME280;27689;48.390;10.856;2023-07-31T00:48:48;96258.59;;;14.54;100.00
42001;BME280;27689;48.390;10.856;2023-07-31T00:51:32;96258.59;;;14.54;100.00
42001;BME280;27689;48.390;10.856;2023-07-31T00:54:16;96260.41;;;14.54;100.00
42001;BME280;27689;48.390;10.856;2023-07-31T00:57:00;96261.53;;;14.35;100.00
42001;BME280;27689;48.390;10.856;2023-07-31T00:59:44;96262.69;;;14.40;100.00
42001;BME280;27689;48.390;10.856;2023-07-31T01:02:30;96263.38;;;14.42;100.00
42001;BME280;27689;48.390;10.856;2023-07-31T01:05:14;96255.28;;;14.36;100.00
42001;BME280;27689;48.390;10.856;2023-07-31T01:08:05;96259.06;;;14.41;100.00
42001;BME280;27689;48.390;10.856;2023-07-31T01:10:54;96246.88;;;14.32;100.00
42001;BME280;27689;48.390;10.856;2023-07-31T01:13:39;96251.16;;;14.33;100.00
42001;BME280;27689;48.390;10.856;2023-07-31T01:16:24;96241.47;;;14.18;100.00
42001;BME280;27689;48.390;10.856;2023-07-31T01:19:08;96237.16;;;14.25;100.00
42001;BME280;27689;48.390;10.856;2023-07-31T01:21:59;96244.91;;;14.26;100.00
42001;BME280;27689;48.390;10.856;2023-07-31T01:27:34;96232.56;;;14.19;100.00
42001;BME280;27689;48.390;10.856;2023-07-31T01:30:21;96229.78;;;14.20;100.00
42001;BME280;27689;48.390;10.856;2023-07-31T01:33:08;96225.47;;;14.11;100.00
42001;BME280;27689;48.390;10.856;2023-07-31T01:35:52;96231.75;;;14.02;100.00
42001;BME280;27689;48.390;10.856;2023-07-31T01:38:37;96235.53;;;14.07;100.00
42001;BME280;27689;48.390;10.856;2023-07-31T01:41:21;96228.47;;;14.08;100.00
42001;BME280;27689;48.390;10.856;2023-07-31T01:44:05;96237.34;;;13.99;100.00
42001;BME280;27689;48.390;10.856;2023-07-31T01:46:49;96232.06;;;13.99;100.00
42001;BME280;27689;48.390;10.856;2023-07-31T01:49:33;96234.53;;;13.84;100.00
42001;BME280;27689;48.390;10.856;2023-07-31T01:52:17;96221.88;;;13.88;100.00
42001;BME280;27689;48.390;10.856;2023-07-31T01:55:01;96222.22;;;13.93;100.00
42001;BME280;27689;48.390;10.856;2023-07-31T01:57:45;96230.59;;;13.96;100.00
42001;BME280;27689;48.390;10.856;2023-07-31T02:00:29;96222.22;;;13.93;100.00
42001;BME280;27689;48.390;10.856;2023-07-31T02:03:13;96225.31;;;13.96;100.00
42001;BME280;27689;48.390;10.856;2023-07-31T02:05:57;96222.06;;;13.94;100.00
42001;BME280;27689;48.390;10.856;2023-07-31T02:08:41;96215.28;;;13.84;100.00
42001;BME280;27689;48.390;10.856;2023-07-31T02:11:25;96210.34;;;13.81;100.00
42001;BME280;27689;48.390;10.856;2023-07-31T02:14:09;96191.06;;;13.80;100.00
42001;BME280;27689;48.390;10.856;2023-07-31T02:16:53;96198.81;;;13.82;100.00
42001;BME280;27689;48.390;10.856;2023-07-31T02:19:36;96201.44;;;13.82;100.00
42001;BME280;27689;48.390;10.856;2023-07-31T02:22:20;96185.00;;;13.55;100.00
42001;BME280;27689;48.390;10.856;2023-07-31T02:25:04;96188.13;;;13.59;100.00
42001;BME280;27689;48.390;10.856;2023-07-31T02:27:48;96178.94;;;13.63;100.00
42001;BME280;27689;48.390;10.856;2023-07-31T02:30:32;96186.47;;;13.66;100.00
42001;BME280;27689;48.390;10.856;2023-07-31T02:33:16;96190.75;;;13.67;100.00
42001;BME280;27689;48.390;10.856;2023-07-31T02:36:00;96182.22;;;13.65;100.00
42001;BME280;27689;48.390;10.856;2023-07-31T02:38:44;96184.03;;;13.64;100.00
42001;BME280;27689;48.390;10.856;2023-07-31T02:41:28;96190.13;;;13.65;100.00
42001;BME280;27689;48.390;10.856;2023-07-31T02:44:12;96189.44;;;13.63;100.00
42001;BME280;27689;48.390;10.856;2023-07-31T02:46:58;96174.47;;;13.55;100.00
42001;BME280;27689;48.390;10.856;2023-07-31T02:49:41;96183.69;;;13.59;100.00
42001;BME280;27689;48.390;10.856;2023-07-31T02:52:25;96182.53;;;13.62;100.00
42001;BME280;27689;48.390;10.856;2023-07-31T02:55:10;96181.72;;;13.61;100.00
42001;BME280;27689;48.390;10.856;2023-07-31T02:57:54;96178.09;;;13.62;100.00
42001;BME280;27689;48.390;10.856;2023-07-31T03:00:42;96168.06;;;13.58;100.00
42001;BME280;27689;48.390;10.856;2023-07-31T03:03:26;96168.06;;;13.58;100.00
42001;BME280;27689;48.390;10.856;2023-07-31T03:06:10;96164.94;;;13.46;100.00
42001;BME280;27689;48.390;10.856;2023-07-31T03:08:54;96178.22;;;13.36;100.00
42001;BME280;27689;48.390;10.856;2023-07-31T03:11:38;96175.78;;;13.35;100.00
42001;BME280;27689;48.390;10.856;2023-07-31T03:14:22;96172.97;;;13.28;100.00
42001;BME280;27689;48.390;10.856;2023-07-31T03:17:06;96174.75;;;13.28;100.00
42001;BME280;27689;48.390;10.856;2023-07-31T03:19:50;96176.59;;;13.35;100.00
42001;BME280;27689;48.390;10.856;2023-07-31T03:22:34;96172.78;;;13.38;100.00
42001;BME280;27689;48.390;10.856;2023-07-31T03:25:18;96170.97;;;13.38;100.00
42001;BME280;27689;48.390;10.856;2023-07-31T03:28:02;96175.44;;;13.38;100.00
42001;BME280;27689;48.390;10.856;2023-07-31T03:30:46;96175.94;;;13.33;100.00
42001;BME280;27689;48.390;10.856;2023-07-31T03:33:30;96181.03;;;13.35;100.00
42001;BME280;27689;48.390;10.856;2023-07-31T03:36:14;96182.50;;;13.29;100.00
42001;BME280;27689;48.390;10.856;2023-07-31T03:38:58;96181.19;;;13.33;100.00
42001;BME280;27689;48.390;10.856;2023-07-31T03:41:41;96173.47;;;13.40;100.00
42001;BME280;27689;48.390;10.856;2023-07-31T03:44:25;96178.56;;;13.41;100.00
42001;BME280;27689;48.390;10.856;2023-07-31T03:47:09;96177.25;;;13.46;100.00
42001;BME280;27689;48.390;10.856;2023-07-31T03:49:53;96172.81;;;13.46;100.00
42001;BME280;27689;48.390;10.856;2023-07-31T03:52:37;96172.16;;;13.44;100.00
42001;BME280;27689;48.390;10.856;2023-07-31T03:55:21;96171.50;;;13.42;100.00
42001;BME280;27689;48.390;10.856;2023-07-31T03:58:05;96170.81;;;13.40;100.00
42001;BME280;27689;48.390;10.856;2023-07-31T04:00:49;96167.88;;;13.35;100.00
42001;BME280;27689;48.390;10.856;2023-07-31T04:03:33;96172.28;;;13.26;100.00
42001;BME280;27689;48.390;10.856;2023-07-31T04:06:17;96172.63;;;13.31;100.00
42001;BME280;27689;48.390;10.856;2023-07-31T04:09:04;96177.22;;;13.29;100.00
42001;BME280;27689;48.390;10.856;2023-07-31T04:11:48;96171.97;;;13.29;100.00
42001;BME280;27689;48.390;10.856;2023-07-31T04:14:32;96169.50;;;13.36;100.00
42001;BME280;27689;48.390;10.856;2023-07-31T04:17:17;96162.94;;;13.40;100.00
42001;BME280;27689;48.390;10.856;2023-07-31T04:20:01;96159.81;;;13.45;100.00
42001;BME280;27689;48.390;10.856;2023-07-31T04:22:45;96153.06;;;13.42;100.00
42001;BME280;27689;48.390;10.856;2023-07-31T04:25:29;96156.53;;;13.43;100.00
42001;BME280;27689;48.390;10.856;2023-07-31T04:28:12;96162.97;;;13.48;100.00
42001;BME280;27689;48.390;10.856;2023-07-31T04:30:57;96151.75;;;13.46;100.00
42001;BME280;27689;48.390;10.856;2023-07-31T04:33:40;96152.44;;;13.48;100.00
42001;BME280;27689;48.390;10.856;2023-07-31T04:36:24;96142.72;;;13.57;100.00
42001;BME280;27689;48.390;10.856;2023-07-31T04:39:08;96144.19;;;13.67;100.00
42001;BME280;27689;48.390;10.856;2023-07-31T04:41:52;96151.13;;;13.76;100.00
42001;BME280;27689;48.390;10.856;2023-07-31T04:44:36;96146.81;;;13.84;100.00
42001;BME280;27689;48.390;10.856;2023-07-31T04:47:20;96150.13;;;13.94;100.00
42001;BME280;27689;48.390;10.856;2023-07-31T04:50:03;96148.28;;;14.02;100.00
42001;BME280;27689;48.390;10.856;2023-07-31T04:52:47;96152.53;;;14.11;100.00
42001;BME280;27689;48.390;10.856;2023-07-31T04:55:31;96154.34;;;14.19;100.00
42001;BME280;27689;48.390;10.856;2023-07-31T04:58:15;96151.69;;;14.27;100.00
42001;BME280;27689;48.390;10.856;2023-07-31T05:00:59;96151.00;;;14.33;100.00
42001;BME280;27689;48.390;10.856;2023-07-31T05:03:43;96148.88;;;14.37;100.00
42001;BME280;27689;48.390;10.856;2023-07-31T05:06:27;96148.38;;;14.41;100.00
42001;BME280;27689;48.390;10.856;2023-07-31T05:09:11;96150.34;;;14.48;100.00
42001;BME280;27689;48.390;10.856;2023-07-31T05:11:55;96154.59;;;14.57;100.00
42001;BME280;27689;48.390;10.856;2023-07-31T05:14:39;96156.22;;;14.66;100.00
42001;BME280;27689;48.390;10.856;2023-07-31T05:17:23;96150.25;;;14.72;100.00
42001;BME280;27689;48.390;10.856;2023-07-31T05:20:07;96153.19;;;14.77;100.00
42001;BME280;27689;48.390;10.856;2023-07-31T05:22:51;96160.06;;;14.86;100.00
42001;BME280;27689;48.390;10.856;2023-07-31T05:25:36;96167.47;;;14.91;100.00
42001;BME280;27689;48.390;10.856;2023-07-31T05:28:21;96174.53;;;14.98;100.00
42001;BME280;27689;48.390;10.856;2023-07-31T05:31:05;96174.50;;;15.06;100.00
42001;BME280;27689;48.390;10.856;2023-07-31T05:33:48;96167.34;;;15.15;100.00
42001;BME280;27689;48.390;10.856;2023-07-31T05:36:33;96168.00;;;15.17;100.00
42001;BME280;27689;48.390;10.856;2023-07-31T05:39:17;96163.03;;;15.22;100.00
42001;BME280;27689;48.390;10.856;2023-07-31T05:42:03;96167.72;;;15.35;100.00
42001;BME280;27689;48.390;10.856;2023-07-31T05:44:46;96169.03;;;15.39;100.00
42001;BME280;27689;48.390;10.856;2023-07-31T05:47:30;96163.03;;;15.45;100.00
42001;BME280;27689;48.390;10.856;2023-07-31T05:50:14;96163.03;;;15.45;100.00
42001;BME280;27689;48.390;10.856;2023-07-31T05:52:58;96163.97;;;15.52;100.00
42001;BME280;27689;48.390;10.856;2023-07-31T05:55:42;96163.16;;;15.51;100.00
42001;BME280;27689;48.390;10.856;2023-07-31T05:58:26;96157.38;;;15.56;100.00
42001;BME280;27689;48.390;10.856;2023-07-31T06:01:10;96152.84;;;15.65;100.00
42001;BME280;27689;48.390;10.856;2023-07-31T06:03:53;96157.44;;;15.71;100.00
42001;BME280;27689;48.390;10.856;2023-07-31T06:06:37;96162.00;;;15.77;100.00
42001;BME280;27689;48.390;10.856;2023-07-31T06:09:21;96159.13;;;15.86;99.41
42001;BME280;27689;48.390;10.856;2023-07-31T06:12:05;96156.09;;;15.90;98.95
42001;BME280;27689;48.390;10.856;2023-07-31T06:14:49;96146.00;;;15.93;99.29
42001;BME280;27689;48.390;10.856;2023-07-31T06:17:34;96149.75;;;15.99;98.64
42001;BME280;27689;48.390;10.856;2023-07-31T06:20:18;96138.28;;;16.06;97.53
42001;BME280;27689;48.390;10.856;2023-07-31T06:23:02;96134.09;;;16.12;98.22
42001;BME280;27689;48.390;10.856;2023-07-31T06:25:47;96127.66;;;16.14;98.28
42001;BME280;27689;48.390;10.856;2023-07-31T06:28:31;96130.00;;;16.24;97.91
42001;BME280;27689;48.390;10.856;2023-07-31T06:31:15;96138.13;;;16.37;98.15
42001;BME280;27689;48.390;10.856;2023-07-31T06:34:02;96135.66;;;16.50;97.20
42001;BME280;27689;48.390;10.856;2023-07-31T06:36:47;96135.31;;;16.68;96.25
42001;BME280;27689;48.390;10.856;2023-07-31T06:39:31;96136.31;;;16.82;95.30
42001;BME280;27689;48.390;10.856;2023-07-31T06:42:15;96142.94;;;16.92;92.77
42001;BME280;27689;48.390;10.856;2023-07-31T06:44:59;96142.59;;;16.96;91.96
42001;BME280;27689;48.390;10.856;2023-07-31T06:47:44;96134.97;;;17.07;92.98
42001;BME280;27689;48.390;10.856;2023-07-31T06:50:28;96143.28;;;17.19;91.50
42001;BME280;27689;48.390;10.856;2023-07-31T06:53:12;96142.97;;;17.28;89.32
42001;BME280;27689;48.390;10.856;2023-07-31T06:55:56;96147.13;;;17.38;89.97
42001;BME280;27689;48.390;10.856;2023-07-31T06:58:41;96140.34;;;17.50;90.67
42001;BME280;27689;48.390;10.856;2023-07-31T07:01:25;96144.19;;;17.69;91.24
42001;BME280;27689;48.390;10.856;2023-07-31T07:04:09;96143.09;;;17.84;88.73
42001;BME280;27689;48.390;10.856;2023-07-31T07:06:54;96140.97;;;17.94;87.03
42001;BME280;27689;48.390;10.856;2023-07-31T07:09:38;96142.84;;;18.01;88.49
42001;BME280;27689;48.390;10.856;2023-07-31T07:12:22;96138.41;;;18.08;85.21
42001;BME280;27689;48.390;10.856;2023-07-31T07:15:07;96138.06;;;18.17;85.49
42001;BME280;27689;48.390;10.856;2023-07-31T07:17:52;96138.69;;;18.19;84.37
42001;BME280;27689;48.390;10.856;2023-07-31T07:20:36;96127.91;;;18.21;83.17
42001;BME280;27689;48.390;10.856;2023-07-31T07:23:20;96126.34;;;18.33;84.26
42001;BME280;27689;48.390;10.856;2023-07-31T07:26:05;96126.66;;;18.51;83.18
42001;BME280;27689;48.390;10.856;2023-07-31T07:28:49;96133.09;;;18.63;80.76
42001;BME280;27689;48.390;10.856;2023-07-31T07:31:33;96123.94;;;18.73;80.52
42001;BME280;27689;48.390;10.856;2023-07-31T07:34:17;96126.81;;;18.78;81.23
42001;BME280;27689;48.390;10.856;2023-07-31T07:37:02;96124.72;;;18.66;80.89
42001;BME280;27689;48.390;10.856;2023-07-31T07:39:46;96128.41;;;18.72;78.60
42001;BME280;27689;48.390;10.856;2023-07-31T07:42:29;96124.34;;;18.70;78.19
42001;BME280;27689;48.390;10.856;2023-07-31T07:45:14;96121.84;;;18.61;77.22
42001;BME280;27689;48.390;10.856;2023-07-31T07:47:57;96130.19;;;18.58;77.12
42001;BME280;27689;48.390;10.856;2023-07-31T07:50:42;96127.69;;;18.57;77.78
42001;BME280;27689;48.390;10.856;2023-07-31T07:53:26;96126.13;;;18.62;77.95
42001;BME280;27689;48.390;10.856;2023-07-31T07:56:10;96127.69;;;18.57;78.51
42001;BME280;27689;48.390;10.856;2023-07-31T07:58:57;96124.53;;;18.68;79.03
42001;BME280;27689;48.390;10.856;2023-07-31T08:01:43;96118.81;;;18.71;77.54
42001;BME280;27689;48.390;10.856;2023-07-31T08:04:30;96123.94;;;18.73;76.73
42001;BME280;27689;48.390;10.856;2023-07-31T08:07:17;96120.47;;;18.72;77.09
42001;BME280;27689;48.390;10.856;2023-07-31T08:10:06;96127.84;;;18.77;76.32
42001;BME280;27689;48.390;10.856;2023-07-31T08:12:53;96130.88;;;18.74;78.70
42001;BME280;27689;48.390;10.856;2023-07-31T08:15:40;96135.56;;;18.72;78.60
42001;BME280;27689;48.390;10.856;2023-07-31T08:18:26;96133.53;;;18.67;78.99
42001;BME280;27689;48.390;10.856;2023-07-31T08:21:11;96139.22;;;18.71;78.46
42001;BME280;27689;48.390;10.856;2023-07-31T08:23:57;96138.00;;;18.66;78.98
42001;BME280;27689;48.390;10.856;2023-07-31T08:26:44;96137.19;;;18.66;80.05
42001;BME280;27689;48.390;10.856;2023-07-31T08:29:36;96136.38;;;18.72;80.26
42001;BME280;27689;48.390;10.856;2023-07-31T08:32:23;96141.16;;;18.83;81.87
42001;BME280;27689;48.390;10.856;2023-07-31T08:35:09;96132.63;;;19.01;80.17
42001;BME280;27689;48.390;10.856;2023-07-31T08:37:58;96125.13;;;19.18;79.76
42001;BME280;27689;48.390;10.856;2023-07-31T08:40:55;96128.88;;;19.36;79.59
42001;BME280;27689;48.390;10.856;2023-07-31T08:43:40;96128.50;;;19.59;74.84
42001;BME280;27689;48.390;10.856;2023-07-31T08:46:39;96119.94;;;19.64;73.74
42001;BME280;27689;48.390;10.856;2023-07-31T08:49:29;96117.50;;;19.69;74.02
42001;BME280;27689;48.390;10.856;2023-07-31T08:52:19;96106.25;;;19.67;71.71
42001;BME280;27689;48.390;10.856;2023-07-31T08:55:09;96105.00;;;19.63;71.17
42001;BME280;27689;48.390;10.856;2023-07-31T08:57:58;96106.25;;;19.67;71.88
42001;BME280;27689;48.390;10.856;2023-07-31T09:00:42;96101.94;;;19.59;70.20
42001;BME280;27689;48.390;10.856;2023-07-31T09:03:29;96106.03;;;19.62;69.98
42001;BME280;27689;48.390;10.856;2023-07-31T09:06:16;96112.19;;;19.69;69.53
42001;BME280;27689;48.390;10.856;2023-07-31T09:09:04;96109.31;;;19.70;70.34
42001;BME280;27689;48.390;10.856;2023-07-31T09:11:51;96099.69;;;19.76;68.15
42001;BME280;27689;48.390;10.856;2023-07-31T09:14:36;96105.22;;;19.68;68.72
42001;BME280;27689;48.390;10.856;2023-07-31T09:17:30;96110.34;;;19.76;70.01
42001;BME280;27689;48.390;10.856;2023-07-31T09:20:22;96109.31;;;19.90;66.51
42001;BME280;27689;48.390;10.856;2023-07-31T09:23:13;96104.00;;;19.97;66.81
42001;BME280;27689;48.390;10.856;2023-07-31T09:26:01;96100.34;;;19.85;66.18
42001;BME280;27689;48.390;10.856;2023-07-31T09:28:50;96110.53;;;20.07;66.81
42001;BME280;27689;48.390;10.856;2023-07-31T09:31:41;96098.66;;;20.30;66.55
42001;BME280;27689;48.390;10.856;2023-07-31T09:34:30;96096.41;;;20.47;66.04
42001;BME280;27689;48.390;10.856;2023-07-31T09:37:20;96081.81;;;20.56;65.42
42001;BME280;27689;48.390;10.856;2023-07-31T09:40:06;96078.28;;;20.68;63.25
42001;BME280;27689;48.390;10.856;2023-07-31T09:42:59;96076.59;;;20.81;68.67
42001;BME280;27689;48.390;10.856;2023-07-31T09:45:47;96063.41;;;20.99;63.56
42001;BME280;27689;48.390;10.856;2023-07-31T09:48:38;96056.56;;;21.16;62.98
42001;BME280;27689;48.390;10.856;2023-07-31T09:51:26;96052.66;;;21.19;62.44
42001;BME280;27689;48.390;10.856;2023-07-31T09:54:11;96052.03;;;21.23;61.18
42001;BME280;27689;48.390;10.856;2023-07-31T09:56:56;96043.66;;;21.20;61.23
42001;BME280;27689;48.390;10.856;2023-07-31T09:59:52;96043.78;;;21.31;63.63
42001;BME280;27689;48.390;10.856;2023-07-31T10:02:37;96026.56;;;21.34;60.54
42001;BME280;27689;48.390;10.856;2023-07-31T10:05:24;96023.88;;;21.59;61.67
42001;BME280;27689;48.390;10.856;2023-07-31T10:08:18;96031.50;;;21.80;61.01
42001;BME280;27689;48.390;10.856;2023-07-31T10:11:07;96022.19;;;21.89;60.40
42001;BME280;27689;48.390;10.856;2023-07-31T10:13:51;96022.13;;;22.21;61.98
42001;BME280;27689;48.390;10.856;2023-07-31T10:16:41;96019.47;;;22.39;57.88
42001;BME280;27689;48.390;10.856;2023-07-31T10:19:26;96026.63;;;22.57;60.29
42001;BME280;27689;48.390;10.856;2023-07-31T10:22:14;96024.09;;;22.43;58.32
42001;BME280;27689;48.390;10.856;2023-07-31T10:25:02;96020.84;;;22.23;58.26
42001;BME280;27689;48.390;10.856;2023-07-31T10:27:48;96023.22;;;22.31;58.36
42001;BME280;27689;48.390;10.856;2023-07-31T10:30:38;96019.13;;;22.29;58.51
42001;BME280;27689;48.390;10.856;2023-07-31T10:33:25;96012.47;;;22.38;60.32
42001;BME280;27689;48.390;10.856;2023-07-31T10:36:15;96001.72;;;22.81;63.73
42001;BME280;27689;48.390;10.856;2023-07-31T10:39:02;95998.34;;;22.85;54.14
42001;BME280;27689;48.390;10.856;2023-07-31T10:41:48;95995.09;;;22.83;55.57
42001;BME280;27689;48.390;10.856;2023-07-31T10:44:32;96000.03;;;22.98;55.76
42001;BME280;27689;48.390;10.856;2023-07-31T10:47:19;95996.66;;;23.03;53.46
42001;BME280;27689;48.390;10.856;2023-07-31T10:50:21;95987.53;;;22.80;53.04
42001;BME280;27689;48.390;10.856;2023-07-31T10:53:29;95986.72;;;23.10;54.78
42001;BME280;27689;48.390;10.856;2023-07-31T10:56:16;95982.41;;;23.20;53.73
42001;BME280;27689;48.390;10.856;2023-07-31T10:59:09;95982.75;;;23.12;52.51
42001;BME280;27689;48.390;10.856;2023-07-31T11:01:56;95978.25;;;23.13;54.23
42001;BME280;27689;48.390;10.856;2023-07-31T11:04:57;95970.72;;;23.33;53.83
42001;BME280;27689;48.390;10.856;2023-07-31T11:07:51;95960.72;;;23.40;54.13
42001;BME280;27689;48.390;10.856;2023-07-31T11:10:43;95955.47;;;23.34;54.25
42001;BME280;27689;48.390;10.856;2023-07-31T11:13:33;95948.06;;;23.47;52.26
42001;BME280;27689;48.390;10.856;2023-07-31T11:19:25;95939.13;;;23.42;51.71
42001;BME280;27689;48.390;10.856;2023-07-31T11:22:09;95932.94;;;23.41;52.88
42001;BME280;27689;48.390;10.856;2023-07-31T11:24:56;95940.41;;;23.51;53.10
42001;BME280;27689;48.390;10.856;2023-07-31T11:27:43;95928.56;;;23.82;52.60
42001;BME280;27689;48.390;10.856;2023-07-31T11:30:30;95920.50;;;23.94;50.90
42001;BME280;27689;48.390;10.856;2023-07-31T11:33:14;95923.84;;;24.12;52.09
42001;BME280;27689;48.390;10.856;2023-07-31T11:36:03;95910.59;;;24.17;49.37
42001;BME280;27689;48.390;10.856;2023-07-31T11:38:47;95909.28;;;24.20;52.39
42001;BME280;27689;48.390;10.856;2023-07-31T11:41:31;95905.38;;;23.99;51.33
42001;BME280;27689;48.390;10.856;2023-07-31T11:44:18;95915.94;;;24.29;51.07
42001;BME280;27689;48.390;10.856;2023-07-31T11:47:07;95909.28;;;24.32;51.28
42001;BME280;27689;48.390;10.856;2023-07-31T11:49:54;95902.69;;;24.51;49.54
42001;BME280;27689;48.390;10.856;2023-07-31T11:52:44;95897.84;;;24.65;50.37
42001;BME280;27689;48.390;10.856;2023-07-31T11:55:31;95916.66;;;24.53;49.40
42001;BME280;27689;48.390;10.856;2023-07-31T11:58:17;95912.78;;;24.32;48.09
42001;BME280;27689;48.390;10.856;2023-07-31T12:01:07;95903.97;;;23.97;49.63
42001;BME280;27689;48.390;10.856;2023-07-31T12:03:54;95903.88;;;24.03;50.71
42001;BME280;27689;48.390;10.856;2023-07-31T12:06:40;95899.16;;;24.22;51.11
42001;BME280;27689;48.390;10.856;2023-07-31T12:09:23;95900.88;;;24.40;52.09
42001;BME280;27689;48.390;10.856;2023-07-31T12:12:10;95904.94;;;24.42;50.84
42001;BME280;27689;48.390;10.856;2023-07-31T12:14:57;95898.25;;;24.16;51.50
42001;BME280;27689;48.390;10.856;2023-07-31T12:17:41;95904.22;;;23.95;49.79
42001;BME280;27689;48.390;10.856;2023-07-31T12:20:28;95896.16;;;24.07;50.74
42001;BME280;27689;48.390;10.856;2023-07-31T12:23:17;95898.00;;;24.30;49.51
42001;BME280;27689;48.390;10.856;2023-07-31T12:26:05;95885.03;;;24.38;50.22
42001;BME280;27689;48.390;10.856;2023-07-31T12:28:50;95894.34;;;24.36;49.50
42001;BME280;27689;48.390;10.856;2023-07-31T12:31:43;95887.13;;;24.65;48.81
42001;BME280;27689;48.390;10.856;2023-07-31T12:34:27;95885.25;;;24.65;48.28
42001;BME280;27689;48.390;10.856;2023-07-31T12:37:13;95878.44;;;24.57;47.93
42001;BME280;27689;48.390;10.856;2023-07-31T12:40:01;95875.06;;;24.62;49.36
42001;BME280;27689;48.390;10.856;2023-07-31T12:42:52;95881.22;;;24.79;49.33
42001;BME280;27689;48.390;10.856;2023-07-31T12:45:39;95869.25;;;24.53;48.29
42001;BME280;27689;48.390;10.856;2023-07-31T12:48:26;95876.66;;;24.35;48.62
42001;BME280;27689;48.390;10.856;2023-07-31T12:51:10;95880.66;;;23.69;49.04
42001;BME280;27689;48.390;10.856;2023-07-31T12:53:54;95867.28;;;23.69;49.25
42001;BME280;27689;48.390;10.856;2023-07-31T12:56:38;95862.25;;;23.84;49.84
42001;BME280;27689;48.390;10.856;2023-07-31T12:59:25;95854.84;;;24.14;49.63
42001;BME280;27689;48.390;10.856;2023-07-31T13:02:14;95846.44;;;24.51;49.69
42001;BME280;27689;48.390;10.856;2023-07-31T13:04:59;95837.53;;;25.07;48.28
42001;BME280;27689;48.390;10.856;2023-07-31T13:07:43;95824.25;;;25.17;46.83
42001;BME280;27689;48.390;10.856;2023-07-31T13:10:27;95831.13;;;25.63;48.00
42001;BME280;27689;48.390;10.856;2023-07-31T13:13:12;95833.72;;;25.97;46.86
42001;BME280;27689;48.390;10.856;2023-07-31T13:15:56;95824.94;;;26.07;47.32
42001;BME280;27689;48.390;10.856;2023-07-31T13:18:40;95821.63;;;25.99;45.11
42001;BME280;27689;48.390;10.856;2023-07-31T13:21:24;95827.19;;;25.93;46.67
42001;BME280;27689;48.390;10.856;2023-07-31T13:24:07;95815.25;;;25.84;47.25
42001;BME280;27689;48.390;10.856;2023-07-31T13:26:52;95817.59;;;25.97;45.25
42001;BME280;27689;48.390;10.856;2023-07-31T13:29:35;95816.59;;;25.81;45.72
42001;BME280;27689;48.390;10.856;2023-07-31T13:32:20;95798.69;;;25.65;45.21
42001;BME280;27689;48.390;10.856;2023-07-31T13:35:08;95807.22;;;25.62;45.61
42001;BME280;27689;48.390;10.856;2023-07-31T13:37:52;95807.16;;;25.40;46.65
42001;BME280;27689;48.390;10.856;2023-07-31T13:40:36;95796.44;;;25.23;46.53
42001;BME280;27689;48.390;10.856;2023-07-31T13:43:20;95799.47;;;25.10;46.91
42001;BME280;27689;48.390;10.856;2023-07-31T13:46:04;95791.09;;;25.23;47.06
42001;BME280;27689;48.390;10.856;2023-07-31T13:48:50;95794.63;;;25.46;49.04
42001;BME280;27689;48.390;10.856;2023-07-31T13:51:34;95805.69;;;25.49;46.19
42001;BME280;27689;48.390;10.856;2023-07-31T13:54:18;95794.63;;;25.62;45.32
42001;BME280;27689;48.390;10.856;2023-07-31T13:57:02;95800.03;;;25.29;45.14
42001;BME280;27689;48.390;10.856;2023-07-31T13:59:46;95795.91;;;24.88;46.25
42001;BME280;27689;48.390;10.856;2023-07-31T14:02:30;95791.97;;;24.45;47.30
42001;BME280;27689;48.390;10.856;2023-07-31T14:05:13;95791.63;;;24.13;47.34
42001;BME280;27689;48.390;10.856;2023-07-31T14:07:57;95787.84;;;23.98;48.14
42001;BME280;27689;48.390;10.856;2023-07-31T14:10:41;95771.00;;;23.97;49.01
42001;BME280;27689;48.390;10.856;2023-07-31T14:13:25;95780.66;;;23.98;50.45
42001;BME280;27689;48.390;10.856;2023-07-31T14:16:09;95789.84;;;23.90;50.67
42001;BME280;27689;48.390;10.856;2023-07-31T14:18:53;95783.66;;;23.73;49.65
42001;BME280;27689;48.390;10.856;2023-07-31T14:21:37;95782.72;;;23.68;50.51
42001;BME280;27689;48.390;10.856;2023-07-31T14:24:21;95770.91;;;23.52;53.20
42001;BME280;27689;48.390;10.856;2023-07-31T14:27:05;95760.53;;;23.55;52.80